Time;durP1;ratioP1;P1;durP2;ratioP2;P2;SDS_P1;SDS_P2;PMS_P1;PMS_P2;Temp;Humidity;BMP_temperature;BMP_pressure;BME280_temperature;BME280_humidity;BME280_pressure;Samples;Min_cycle;Max_cycle;Signal;HPM_P1;HPM_P2
2022/06/24 00:00:35;;;;;;;25.05;12.35;;;23.70;99.90;;;;;;5114968;28;20024;-91
2022/06/24 00:03:01;;;;;;;24.15;12.15;;;23.80;99.90;;;;;;5094579;28;20114;-92
2022/06/24 00:05:33;;;;;;;23.48;11.85;;;23.80;99.90;;;;;;5110144;28;20051;-92
2022/06/24 00:07:59;;;;;;;27.77;12.52;;;23.70;99.90;;;;;;5093066;28;20020;-93
2022/06/24 00:10:31;;;;;;;31.42;13.02;;;23.70;99.90;;;;;;5103911;28;20032;-93
2022/06/24 00:12:57;;;;;;;30.85;12.10;;;23.70;99.90;;;;;;5094316;28;20016;-91
2022/06/24 00:15:24;;;;;;;27.85;12.43;;;23.70;99.90;;;;;;5093941;28;20124;-90
2022/06/24 00:17:50;;;;;;;28.20;12.32;;;23.60;99.90;;;;;;5093830;28;20028;-92
2022/06/24 00:20:17;;;;;;;35.70;12.30;;;23.60;99.90;;;;;;5104129;28;20024;-90
2022/06/24 00:22:45;;;;;;;27.10;12.35;;;23.50;99.90;;;;;;5093893;28;20620;-89
2022/06/24 00:25:22;;;;;;;31.20;12.95;;;23.50;99.90;;;;;;5102620;28;20019;-91
2022/06/24 00:28:09;;;;;;;32.53;12.13;;;23.50;99.90;;;;;;5095527;28;20024;-94
2022/06/24 00:30:49;;;;;;;35.55;13.00;;;23.50;99.90;;;;;;5095411;28;20044;-93
2022/06/24 00:33:19;;;;;;;30.80;11.55;;;23.50;99.90;;;;;;5115096;27;20023;-94
2022/06/24 00:35:56;;;;;;;28.98;11.90;;;23.50;99.90;;;;;;5109506;28;20492;-93
2022/06/24 00:38:26;;;;;;;29.15;12.27;;;23.50;99.90;;;;;;5076323;28;20035;-93
2022/06/24 00:41:00;;;;;;;23.50;11.48;;;23.60;99.90;;;;;;5098991;28;20089;-94
2022/06/24 00:43:29;;;;;;;22.15;11.68;;;23.50;99.90;;;;;;5112923;28;20023;-93
2022/06/24 00:46:24;;;;;;;27.55;12.07;;;23.50;99.90;;;;;;5093871;28;20020;-92
2022/06/24 00:48:57;;;;;;;34.53;12.27;;;23.50;99.90;;;;;;5088882;28;20407;-92
2022/06/24 00:51:32;;;;;;;25.15;11.73;;;23.50;99.90;;;;;;5093784;28;20077;-90
2022/06/24 00:53:58;;;;;;;26.48;11.63;;;23.40;99.90;;;;;;5095401;28;20026;-89
2022/06/24 00:56:27;;;;;;;26.38;11.80;;;23.40;99.90;;;;;;5109586;28;20024;-90
2022/06/24 00:59:05;;;;;;;25.77;12.77;;;23.40;99.90;;;;;;5110822;28;20024;-90
2022/06/24 01:01:36;;;;;;;23.83;12.25;;;23.40;99.90;;;;;;5092229;28;20081;-89
2022/06/24 01:04:04;;;;;;;26.27;12.02;;;23.40;99.90;;;;;;5121842;22;20524;-96
2022/06/24 01:06:32;;;;;;;25.65;12.50;;;23.30;99.90;;;;;;5089241;28;20033;-96
2022/06/24 01:08:58;;;;;;;27.92;12.43;;;23.30;99.90;;;;;;5144050;22;20053;-95
2022/06/24 01:11:25;;;;;;;27.60;11.70;;;23.20;99.90;;;;;;5065838;22;20120;-96
2022/06/24 01:13:51;;;;;;;26.92;12.88;;;23.20;99.90;;;;;;5041064;28;20072;-96
2022/06/24 01:16:20;;;;;;;27.85;12.25;;;23.20;99.90;;;;;;5038398;28;20029;-96
2022/06/24 01:18:46;;;;;;;25.40;11.73;;;23.10;99.90;;;;;;5040995;28;20025;-96
2022/06/24 01:21:38;;;;;;;32.72;12.32;;;23.10;99.90;;;;;;5025544;28;20032;-96
2022/06/24 01:24:05;;;;;;;21.65;11.25;;;23.10;99.90;;;;;;5048674;28;20044;-96
2022/06/24 01:26:31;;;;;;;30.40;12.20;;;23.00;99.90;;;;;;5030599;28;20040;-93
2022/06/24 01:28:57;;;;;;;27.60;11.80;;;23.10;99.90;;;;;;5047848;22;20063;-96
2022/06/24 01:31:23;;;;;;;28.63;11.52;;;23.10;99.90;;;;;;5058914;28;20092;-96
2022/06/24 01:33:48;;;;;;;17.63;11.07;;;23.10;99.90;;;;;;5039789;28;20057;-96
2022/06/24 01:36:14;;;;;;;30.88;11.30;;;23.10;99.90;;;;;;5001254;28;20030;-96
2022/06/24 01:38:40;;;;;;;37.22;11.20;;;23.10;99.90;;;;;;5021481;28;20076;-96
2022/06/24 01:41:05;;;;;;;21.58;10.57;;;23.10;99.90;;;;;;5034200;28;20025;-96
2022/06/24 01:43:31;;;;;;;27.70;10.70;;;23.10;99.90;;;;;;5060465;28;20100;-96
2022/06/24 01:45:57;;;;;;;30.83;11.38;;;23.10;99.90;;;;;;5051228;28;20029;-96
2022/06/24 01:48:22;;;;;;;24.10;11.65;;;23.10;99.90;;;;;;5044830;28;20017;-96
2022/06/24 01:50:48;;;;;;;26.40;10.50;;;23.10;99.90;;;;;;5048783;28;20120;-93
2022/06/24 01:53:13;;;;;;;36.35;11.65;;;23.10;99.90;;;;;;5065192;28;20025;-96
2022/06/24 01:55:39;;;;;;;31.95;11.18;;;23.10;99.90;;;;;;5050505;28;20093;-96
2022/06/24 01:58:05;;;;;;;24.52;10.60;;;23.10;99.90;;;;;;5047471;28;20033;-96
2022/06/24 02:00:31;;;;;;;27.17;10.82;;;23.10;99.90;;;;;;5035537;28;20044;-96
2022/06/24 02:02:56;;;;;;;32.00;11.40;;;23.10;99.90;;;;;;5052495;23;20049;-96
2022/06/24 02:15:45;;;;;;;27.02;11.00;;;23.10;99.90;;;;;;5087249;28;20051;-96
2022/06/24 02:18:11;;;;;;;25.15;11.18;;;23.10;99.90;;;;;;5071578;28;20033;-96
2022/06/24 02:20:37;;;;;;;26.33;10.95;;;23.20;99.90;;;;;;5086559;28;20036;-96
2022/06/24 02:23:03;;;;;;;25.33;10.65;;;23.20;99.90;;;;;;5084423;28;20108;-96
2022/06/24 02:25:28;;;;;;;22.38;9.75;;;23.20;99.90;;;;;;5065313;22;20054;-96
2022/06/24 02:27:54;;;;;;;25.88;10.35;;;23.20;99.90;;;;;;5036822;28;20021;-96
2022/06/24 02:30:20;;;;;;;26.58;10.77;;;23.30;99.90;;;;;;5041184;28;20049;-96
2022/06/24 02:32:46;;;;;;;31.38;10.75;;;23.30;99.90;;;;;;5050015;28;20052;-96
2022/06/24 02:35:12;;;;;;;24.52;10.20;;;23.30;99.90;;;;;;5075390;22;20068;-96
2022/06/24 02:37:38;;;;;;;25.63;10.82;;;23.20;99.90;;;;;;5079656;22;20060;-96
2022/06/24 02:42:57;;;;;;;25.17;11.18;;;23.10;99.90;;;;;;5098007;22;20137;-96
2022/06/24 02:45:23;;;;;;;25.45;10.38;;;23.10;99.90;;;;;;5079719;22;20045;-96
2022/06/24 02:47:49;;;;;;;19.67;10.60;;;23.20;99.90;;;;;;5056440;28;20036;-96
2022/06/24 02:50:15;;;;;;;26.45;10.48;;;23.10;99.90;;;;;;5044540;28;20033;-96
2022/06/24 02:52:41;;;;;;;30.45;10.85;;;23.10;99.90;;;;;;5034342;28;20025;-96
2022/06/24 02:55:07;;;;;;;26.92;10.30;;;23.10;99.90;;;;;;5043046;28;20029;-96
2022/06/24 02:57:33;;;;;;;28.70;10.25;;;23.20;99.90;;;;;;5041978;28;20029;-96
2022/06/24 02:59:59;;;;;;;22.70;10.15;;;23.20;99.90;;;;;;5048075;28;20082;-96
2022/06/24 03:02:25;;;;;;;27.15;10.77;;;23.10;99.90;;;;;;5050297;28;20029;-96
2022/06/24 03:04:51;;;;;;;41.90;10.50;;;23.10;99.90;;;;;;5055392;28;20026;-96
2022/06/24 03:07:17;;;;;;;26.20;10.57;;;23.10;99.90;;;;;;5045970;28;20025;-96
2022/06/24 03:09:43;;;;;;;28.38;10.80;;;23.10;99.90;;;;;;5052564;28;20036;-96
2022/06/24 03:12:09;;;;;;;29.90;10.93;;;23.10;99.90;;;;;;5123273;22;20056;-96
2022/06/24 03:14:34;;;;;;;36.08;10.65;;;23.10;99.90;;;;;;5102709;28;20021;-96
2022/06/24 03:19:38;;;;;;;22.83;10.63;;;23.00;99.90;;;;;;5225977;22;20564;-96
2022/06/24 03:22:04;;;;;;;34.45;11.10;;;23.00;99.90;;;;;;5062921;28;20020;-96
2022/06/24 03:24:29;;;;;;;34.85;9.70;;;23.00;99.90;;;;;;5086047;28;20031;-96
2022/06/24 03:26:55;;;;;;;26.25;10.35;;;23.00;99.90;;;;;;5078617;28;20028;-96
2022/06/24 03:29:21;;;;;;;30.90;10.50;;;23.00;99.90;;;;;;5094712;28;20025;-95
2022/06/24 03:31:47;;;;;;;31.95;10.45;;;23.00;99.90;;;;;;5077613;28;20036;-96
2022/06/24 03:34:13;;;;;;;24.25;9.20;;;23.00;99.90;;;;;;5090802;28;20004;-96
2022/06/24 03:36:38;;;;;;;27.30;10.30;;;23.00;99.90;;;;;;5078808;28;20035;-96
2022/06/24 03:41:33;;;;;;;19.88;9.27;;;23.00;99.90;;;;;;5121749;28;20456;-96
2022/06/24 03:44:00;;;;;;;32.15;9.85;;;23.00;99.90;;;;;;5103261;28;20031;-96
2022/06/24 03:46:26;;;;;;;26.02;9.32;;;23.00;99.90;;;;;;5080832;28;20097;-96
2022/06/24 03:48:51;;;;;;;27.38;10.40;;;23.10;99.90;;;;;;5094853;28;20028;-95
2022/06/24 03:51:17;;;;;;;28.23;9.85;;;23.10;99.90;;;;;;5117551;28;20031;-96
2022/06/24 03:53:43;;;;;;;32.10;10.32;;;23.10;99.90;;;;;;5117358;28;20020;-95
2022/06/24 03:56:11;;;;;;;25.80;9.05;;;23.20;99.90;;;;;;5098210;28;20477;-94
2022/06/24 03:58:37;;;;;;;34.28;10.00;;;23.20;99.90;;;;;;5098357;28;20111;-96
2022/06/24 04:01:03;;;;;;;31.35;9.80;;;23.20;99.90;;;;;;5080037;28;20051;-96
2022/06/24 04:03:30;;;;;;;31.52;10.77;;;23.10;99.90;;;;;;5107890;28;20498;-95
2022/06/24 04:05:55;;;;;;;30.92;10.75;;;23.10;99.90;;;;;;5116553;28;20026;-96
2022/06/24 04:08:21;;;;;;;32.92;10.63;;;23.10;99.90;;;;;;5118099;28;20051;-96
2022/06/24 04:10:47;;;;;;;29.50;10.02;;;23.20;99.90;;;;;;5098342;28;20043;-96
2022/06/24 04:13:12;;;;;;;28.80;10.23;;;23.20;99.90;;;;;;5095517;28;20024;-96
2022/06/24 04:15:50;;;;;;;79.47;13.07;;;23.30;99.90;;;;;;5100832;28;20379;-95
2022/06/24 04:18:17;;;;;;;31.60;11.23;;;23.30;99.90;;;;;;5116374;28;20106;-95
2022/06/24 04:20:42;;;;;;;31.60;10.52;;;23.30;99.90;;;;;;5110054;28;20027;-96
2022/06/24 04:23:08;;;;;;;30.67;11.30;;;23.40;99.90;;;;;;5118223;28;20024;-94
2022/06/24 04:25:34;;;;;;;22.00;9.95;;;23.40;99.90;;;;;;5115353;28;20027;-94
2022/06/24 04:28:01;;;;;;;26.58;10.10;;;23.40;99.90;;;;;;5115887;28;20020;-96
2022/06/24 04:30:26;;;;;;;26.52;10.55;;;23.50;99.90;;;;;;5079926;28;20475;-93
2022/06/24 04:32:52;;;;;;;25.42;10.00;;;23.50;99.90;;;;;;5094835;28;20111;-96
2022/06/24 04:35:18;;;;;;;25.58;9.57;;;23.50;99.90;;;;;;5079170;28;20601;-94
2022/06/24 04:37:44;;;;;;;29.85;10.52;;;23.60;99.90;;;;;;5096733;28;20103;-93
2022/06/24 04:40:12;;;;;;;30.52;9.68;;;23.70;99.90;;;;;;5081942;28;20078;-95
2022/06/24 04:42:38;;;;;;;22.70;9.02;;;23.70;99.90;;;;;;5094201;28;20020;-94
2022/06/24 04:45:05;;;;;;;42.45;9.93;;;23.80;99.90;;;;;;5104268;28;20024;-92
2022/06/24 04:47:31;;;;;;;24.85;9.90;;;23.80;99.90;;;;;;5099283;28;20046;-96
2022/06/24 04:49:56;;;;;;;20.50;9.32;;;23.90;99.90;;;;;;5107594;28;20494;-96
2022/06/24 04:52:22;;;;;;;27.08;9.10;;;24.00;99.90;;;;;;5117766;28;20474;-96
2022/06/24 04:54:50;;;;;;;40.20;10.48;;;24.00;99.90;;;;;;5088557;28;20020;-96
2022/06/24 04:57:16;;;;;;;30.45;9.88;;;24.10;99.90;;;;;;5079190;28;20032;-96
2022/06/24 04:59:42;;;;;;;27.10;9.60;;;24.10;99.90;;;;;;5106448;28;20015;-94
2022/06/24 05:02:08;;;;;;;29.30;10.10;;;24.30;99.90;;;;;;5112930;28;20121;-93
2022/06/24 05:04:35;;;;;;;31.60;9.52;;;24.30;99.90;;;;;;5095388;28;20024;-94
2022/06/24 05:07:02;;;;;;;31.05;9.70;;;24.30;99.90;;;;;;5093414;28;20020;-95
2022/06/24 05:09:28;;;;;;;28.58;10.38;;;24.40;99.90;;;;;;5099291;28;20072;-93
2022/06/24 05:11:53;;;;;;;21.55;9.27;;;24.50;99.90;;;;;;5110145;28;20031;-93
2022/06/24 05:14:19;;;;;;;32.95;9.80;;;24.60;99.90;;;;;;5090558;28;20027;-94
2022/06/24 05:16:45;;;;;;;25.45;9.75;;;24.60;99.90;;;;;;5093150;28;20038;-93
2022/06/24 05:19:11;;;;;;;24.15;9.02;;;24.70;99.90;;;;;;5093563;28;20024;-94
2022/06/24 05:21:36;;;;;;;29.65;9.45;;;24.70;99.90;;;;;;5075605;28;20043;-92
2022/06/24 05:24:03;;;;;;;24.33;9.70;;;24.70;99.90;;;;;;5075353;28;20475;-94
2022/06/24 05:26:28;;;;;;;30.35;9.30;;;24.70;99.90;;;;;;5079841;28;20020;-93
2022/06/24 05:28:54;;;;;;;22.00;8.48;;;24.80;99.90;;;;;;5099484;28;20474;-94
2022/06/24 05:31:20;;;;;;;26.50;8.68;;;24.90;99.90;;;;;;5120852;28;20031;-96
2022/06/24 05:33:45;;;;;;;48.30;9.63;;;24.90;99.90;;;;;;5088296;22;20084;-96
2022/06/24 05:36:11;;;;;;;18.90;8.70;;;25.00;99.90;;;;;;5047534;28;20009;-96
2022/06/24 05:38:37;;;;;;;18.25;8.23;;;25.10;99.90;;;;;;5056981;28;20029;-96
2022/06/24 05:41:03;;;;;;;25.40;8.48;;;25.10;99.90;;;;;;5040808;28;20032;-96
2022/06/24 05:43:30;;;;;;;30.75;8.23;;;25.20;99.90;;;;;;5043999;28;20036;-96
2022/06/24 05:45:56;;;;;;;26.70;8.90;;;25.30;99.90;;;;;;5045190;28;20029;-96
2022/06/24 05:48:21;;;;;;;24.70;8.90;;;25.40;99.90;;;;;;5060104;28;20017;-96
2022/06/24 05:50:47;;;;;;;24.25;8.85;;;25.50;99.90;;;;;;5057226;28;20079;-96
2022/06/24 05:55:49;;;;;;;21.77;8.50;;;25.60;99.90;;;;;;5116013;22;20059;-95
2022/06/24 05:58:15;;;;;;;26.90;8.32;;;25.70;99.90;;;;;;5097872;28;20055;-96
2022/06/24 06:00:41;;;;;;;29.48;8.48;;;25.80;99.90;;;;;;5094269;28;20026;-95
2022/06/24 06:03:07;;;;;;;25.58;8.18;;;25.80;99.90;;;;;;5082494;28;20082;-96
2022/06/24 06:05:33;;;;;;;23.52;7.88;;;25.90;99.90;;;;;;5088971;28;20425;-95
2022/06/24 06:07:58;;;;;;;22.25;8.18;;;26.00;99.90;;;;;;5092341;28;20024;-94
2022/06/24 06:10:24;;;;;;;34.83;8.82;;;26.10;99.90;;;;;;5068543;28;20407;-93
2022/06/24 06:12:50;;;;;;;28.45;8.50;;;26.10;99.90;;;;;;5071982;28;20020;-92
2022/06/24 06:15:15;;;;;;;31.05;8.23;;;26.20;99.90;;;;;;5061694;28;20042;-93
2022/06/24 06:17:41;;;;;;;26.77;8.00;;;26.20;99.90;;;;;;5070908;28;20059;-93
2022/06/24 06:20:07;;;;;;;42.55;11.07;;;26.40;99.90;;;;;;5065440;28;20029;-96
2022/06/24 06:25:01;;;;;;;45.00;13.32;;;26.60;99.90;;;;;;5069118;28;20107;-90
2022/06/24 06:27:27;;;;;;;28.15;8.68;;;26.70;99.90;;;;;;5069010;28;20036;-91
2022/06/24 06:29:52;;;;;;;32.35;8.43;;;26.80;99.90;;;;;;5066482;28;20528;-91
2022/06/24 06:32:18;;;;;;;23.40;7.68;;;26.80;99.90;;;;;;5070866;28;20041;-92
2022/06/24 06:34:43;;;;;;;22.17;7.85;;;26.90;99.90;;;;;;5062081;28;20495;-84
2022/06/24 06:37:09;;;;;;;27.63;8.18;;;27.00;99.90;;;;;;5067535;28;20574;-93
2022/06/24 06:39:36;;;;;;;25.70;7.88;;;27.10;99.90;;;;;;5068899;28;20039;-88
2022/06/24 06:42:02;;;;;;;26.15;8.05;;;27.10;99.90;;;;;;5074366;28;20532;-89
2022/06/24 06:44:28;;;;;;;32.83;8.63;;;27.20;99.90;;;;;;5050479;28;20039;-88
2022/06/24 06:46:54;;;;;;;29.65;8.43;;;27.30;99.90;;;;;;5037607;28;20025;-87
2022/06/24 06:49:19;;;;;;;22.58;8.10;;;27.40;99.90;;;;;;5059186;28;20082;-88
2022/06/24 06:51:45;;;;;;;28.45;8.90;;;27.40;99.90;;;;;;5071418;28;20032;-89
2022/06/24 06:54:11;;;;;;;33.38;8.15;;;27.40;99.90;;;;;;5049691;28;20036;-90
2022/06/24 06:56:37;;;;;;;33.25;8.38;;;27.40;99.90;;;;;;5039662;28;20056;-89
2022/06/24 06:59:03;;;;;;;30.52;8.52;;;27.50;99.90;;;;;;5038741;28;20503;-90
2022/06/24 07:01:29;;;;;;;28.83;8.65;;;27.50;99.90;;;;;;5064521;28;20025;-91
2022/06/24 07:03:54;;;;;;;32.30;8.25;;;27.50;99.90;;;;;;5067406;28;20027;-91
2022/06/24 07:06:20;;;;;;;20.85;7.90;;;27.60;99.90;;;;;;5063500;28;20025;-92
2022/06/24 07:08:46;;;;;;;35.50;7.55;;;27.80;99.90;;;;;;5053629;28;20025;-88
2022/06/24 07:11:12;;;;;;;26.52;7.70;;;27.80;99.90;;;;;;5043969;28;20123;-87
2022/06/24 07:13:37;;;;;;;31.75;8.32;;;27.80;99.90;;;;;;5052899;28;20025;-90
2022/06/24 07:16:08;;;;;;;30.90;8.00;;;27.90;99.90;;;;;;5060341;28;20044;-91
2022/06/24 07:18:34;;;;;;;28.45;7.72;;;28.00;99.90;;;;;;5071577;28;20505;-91
2022/06/24 07:20:59;;;;;;;30.27;7.55;;;28.00;99.90;;;;;;5041235;28;20057;-90
2022/06/24 07:23:25;;;;;;;30.15;7.88;;;28.00;99.90;;;;;;5035977;28;20072;-90
2022/06/24 07:25:54;;;;;;;27.55;7.70;;;28.00;99.90;;;;;;5068453;28;20510;-85
2022/06/24 07:28:20;;;;;;;25.23;8.07;;;28.10;99.90;;;;;;5049761;28;20017;-84
2022/06/24 07:30:46;;;;;;;29.00;7.38;;;28.20;99.90;;;;;;5048057;28;20406;-84
2022/06/24 07:33:12;;;;;;;33.33;8.35;;;28.20;99.90;;;;;;5062944;28;20083;-84
2022/06/24 07:35:37;;;;;;;25.90;7.85;;;28.30;99.90;;;;;;5059228;28;20032;-84
2022/06/24 07:38:03;;;;;;;27.27;8.13;;;28.30;99.90;;;;;;5035282;28;20442;-83
2022/06/24 07:40:29;;;;;;;29.33;7.47;;;28.40;99.90;;;;;;5040471;28;20104;-87
2022/06/24 07:42:55;;;;;;;21.35;7.80;;;28.50;99.90;;;;;;5072346;28;20036;-87
2022/06/24 07:45:20;;;;;;;34.08;8.23;;;28.60;99.90;;;;;;5048311;28;20032;-87
2022/06/24 07:47:46;;;;;;;22.38;7.68;;;28.70;99.90;;;;;;5064799;28;20031;-87
2022/06/24 07:50:12;;;;;;;25.52;8.23;;;28.80;99.90;;;;;;5060106;28;20033;-87
2022/06/24 07:52:38;;;;;;;27.92;7.65;;;28.80;99.90;;;;;;5049455;28;20472;-93
2022/06/24 07:57:48;;;;;;;32.05;8.00;;;28.80;99.90;;;;;;5073213;28;20070;-91
2022/06/24 08:00:14;;;;;;;22.52;6.90;;;28.90;99.90;;;;;;5043175;28;20025;-93
2022/06/24 08:02:39;;;;;;;30.63;7.80;;;28.80;99.90;;;;;;5048369;28;20040;-89
2022/06/24 08:05:05;;;;;;;27.70;7.60;;;28.90;99.90;;;;;;5058008;28;20017;-89
2022/06/24 08:07:31;;;;;;;30.13;7.75;;;29.00;99.90;;;;;;5052270;28;20503;-92
2022/06/24 08:09:57;;;;;;;27.27;7.38;;;29.10;99.90;;;;;;5045082;28;20063;-90
2022/06/24 08:12:23;;;;;;;28.77;7.80;;;29.20;99.90;;;;;;5057612;28;20036;-90
2022/06/24 08:14:48;;;;;;;25.38;7.35;;;29.20;99.90;;;;;;5044886;28;20021;-89
2022/06/24 08:17:14;;;;;;;32.35;8.00;;;29.20;99.90;;;;;;5067528;28;20364;-89
2022/06/24 08:19:39;;;;;;;31.98;9.15;;;29.00;99.90;;;;;;5039443;28;20434;-89
2022/06/24 08:22:05;;;;;;;37.00;8.45;;;28.80;99.90;;;;;;5053772;28;20052;-89
2022/06/24 08:24:31;;;;;;;36.53;7.80;;;28.60;99.90;;;;;;5035793;28;20055;-89
2022/06/24 08:26:57;;;;;;;34.15;7.75;;;28.70;99.90;;;;;;5053205;28;20026;-89
2022/06/24 08:29:22;;;;;;;31.77;8.63;;;28.60;99.90;;;;;;5049745;28;20035;-89
2022/06/24 08:31:48;;;;;;;45.75;9.40;;;28.60;99.90;;;;;;5054465;28;20039;-88
2022/06/24 08:34:15;;;;;;;35.42;9.60;;;28.60;99.90;;;;;;5039034;28;20017;-89
2022/06/24 08:36:40;;;;;;;35.25;8.70;;;28.30;99.90;;;;;;5051331;28;20029;-90
2022/06/24 08:39:06;;;;;;;28.98;8.43;;;28.20;99.90;;;;;;5050290;28;20031;-86
2022/06/24 08:41:32;;;;;;;31.63;8.48;;;28.20;99.90;;;;;;5058723;28;20570;-87
2022/06/24 08:43:58;;;;;;;33.30;8.65;;;28.20;99.90;;;;;;5035914;28;20487;-88
2022/06/24 08:46:25;;;;;;;31.95;8.43;;;28.30;99.90;;;;;;5068925;28;20028;-90
2022/06/24 08:48:54;;;;;;;31.25;9.00;;;28.30;99.90;;;;;;5050506;28;20028;-88
2022/06/24 08:51:20;;;;;;;28.73;8.40;;;28.50;99.90;;;;;;5069646;28;20025;-88
2022/06/24 08:53:48;;;;;;;29.08;8.25;;;29.00;99.90;;;;;;5051234;28;20410;-89
2022/06/24 08:56:14;;;;;;;32.05;8.70;;;29.30;99.90;;;;;;5056236;28;20024;-90
2022/06/24 08:58:40;;;;;;;32.20;8.50;;;29.30;99.90;;;;;;5053827;28;20033;-89
2022/06/24 09:01:06;;;;;;;32.33;9.10;;;29.20;99.90;;;;;;5046741;28;20017;-89
2022/06/24 09:03:32;;;;;;;22.70;7.50;;;29.10;99.90;;;;;;5062858;28;20028;-88
2022/06/24 09:05:58;;;;;;;30.98;8.90;;;29.10;99.90;;;;;;5044650;28;20024;-89
2022/06/24 09:08:32;;;;;;;35.03;7.93;;;29.00;99.90;;;;;;5070524;28;20045;-88
2022/06/24 09:11:10;;;;;;;21.15;7.50;;;29.20;99.90;;;;;;5059019;28;20062;-89
2022/06/24 09:13:49;;;;;;;27.38;7.82;;;29.40;99.90;;;;;;5034899;28;20104;-88
2022/06/24 09:16:17;;;;;;;31.40;8.35;;;29.10;99.90;;;;;;5068900;28;20021;-89
2022/06/24 09:18:51;;;;;;;25.85;8.95;;;29.00;99.90;;;;;;5068623;28;20087;-87
2022/06/24 09:21:23;;;;;;;26.10;8.50;;;28.80;99.90;;;;;;5046917;28;20029;-90
2022/06/24 09:23:53;;;;;;;25.50;8.82;;;29.10;99.90;;;;;;5053139;28;20128;-89
2022/06/24 09:26:59;;;;;;;34.97;8.57;;;29.30;99.90;;;;;;5058752;28;20043;-89
2022/06/24 09:29:25;;;;;;;31.92;8.40;;;29.30;99.90;;;;;;5009500;28;20057;-91
2022/06/24 09:31:51;;;;;;;26.25;8.93;;;28.80;99.90;;;;;;5034194;28;20037;-89
2022/06/24 09:34:18;;;;;;;39.85;9.60;;;28.40;99.90;;;;;;5035011;28;20021;-88
2022/06/24 09:36:47;;;;;;;33.28;9.05;;;28.30;99.90;;;;;;5034840;28;20419;-88
2022/06/24 09:39:14;;;;;;;28.27;8.77;;;28.40;99.90;;;;;;5035190;28;20052;-88
2022/06/24 09:41:49;;;;;;;30.15;9.27;;;28.50;99.90;;;;;;5035941;28;20025;-89
2022/06/24 09:44:16;;;;;;;31.33;9.15;;;28.40;99.90;;;;;;5038118;28;20021;-89
2022/06/24 09:46:42;;;;;;;29.60;9.18;;;28.40;99.90;;;;;;5058802;28;20021;-84
2022/06/24 09:49:11;;;;;;;29.23;8.57;;;28.40;99.90;;;;;;5047036;28;20017;-89
2022/06/24 09:51:39;;;;;;;31.23;8.63;;;28.30;99.90;;;;;;5070483;28;20576;-89
2022/06/24 09:54:06;;;;;;;28.20;8.18;;;28.10;99.90;;;;;;5071186;28;20025;-88
2022/06/24 09:56:32;;;;;;;25.25;7.88;;;28.10;99.90;;;;;;5049693;28;20024;-89
2022/06/24 10:01:43;;;;;;;31.52;8.13;;;28.30;99.90;;;;;;5071264;28;20032;-89
2022/06/24 10:04:14;;;;;;;33.15;7.97;;;28.60;99.90;;;;;;5042156;28;20025;-90
2022/06/24 10:06:44;;;;;;;44.55;8.52;;;28.70;99.90;;;;;;5040350;28;20025;-90
2022/06/24 10:09:10;;;;;;;32.50;7.10;;;28.80;99.90;;;;;;5040019;28;20021;-89
2022/06/24 10:11:40;;;;;;;38.88;7.93;;;28.90;99.90;;;;;;5042904;28;20040;-90
2022/06/24 10:14:07;;;;;;;32.42;7.05;;;28.70;99.90;;;;;;5039927;28;20032;-87
2022/06/24 10:16:34;;;;;;;36.17;8.68;;;28.60;99.90;;;;;;5039966;28;20391;-88
2022/06/24 10:19:01;;;;;;;28.48;7.78;;;28.30;99.90;;;;;;5057413;28;20582;-89
2022/06/24 10:21:27;;;;;;;30.73;8.40;;;28.10;99.90;;;;;;5053019;28;20036;-89
2022/06/24 10:23:53;;;;;;;31.95;8.88;;;28.10;99.90;;;;;;5071384;28;20090;-89
2022/06/24 10:26:30;;;;;;;31.00;9.05;;;28.10;99.90;;;;;;5058023;28;20056;-89
2022/06/24 10:29:05;;;;;;;34.50;8.80;;;28.00;99.90;;;;;;5038900;28;20454;-89
2022/06/24 10:34:25;;;;;;;38.97;9.57;;;28.20;99.90;;;;;;5067683;28;20032;-90
2022/06/24 10:36:53;;;;;;;23.50;7.40;;;28.20;99.90;;;;;;5045912;28;20104;-90
2022/06/24 10:39:26;;;;;;;49.53;8.98;;;28.30;99.90;;;;;;5041001;28;20490;-89
2022/06/24 10:42:04;;;;;;;38.03;7.82;;;28.30;99.90;;;;;;5057970;28;20079;-89
2022/06/24 10:44:34;;;;;;;31.00;7.95;;;28.30;99.90;;;;;;5058526;28;20114;-89
2022/06/24 10:47:12;;;;;;;33.42;8.45;;;28.50;99.90;;;;;;5055828;28;20491;-90
2022/06/24 10:49:55;;;;;;;37.45;9.07;;;28.70;99.90;;;;;;5039979;28;20035;-90
2022/06/24 10:52:42;;;;;;;31.35;8.48;;;28.60;99.90;;;;;;5055676;28;20298;-91
2022/06/24 10:55:17;;;;;;;39.33;8.13;;;28.80;99.90;;;;;;5064082;28;20535;-89
2022/06/24 10:57:54;;;;;;;32.67;8.40;;;28.60;99.90;;;;;;5055234;28;20031;-90
2022/06/24 11:00:22;;;;;;;27.27;7.75;;;28.70;99.90;;;;;;5061132;28;20025;-90
2022/06/24 11:03:08;;;;;;;36.22;7.93;;;29.00;99.90;;;;;;5048491;28;20100;-90
2022/06/24 11:05:36;;;;;;;30.55;7.70;;;29.20;99.90;;;;;;5029666;28;20037;-90
2022/06/24 11:08:08;;;;;;;35.15;7.78;;;29.10;99.90;;;;;;5035829;28;20029;-90
2022/06/24 11:10:34;;;;;;;36.50;7.57;;;29.10;99.90;;;;;;5040344;28;20047;-91
2022/06/24 11:13:01;;;;;;;30.67;7.22;;;29.00;99.90;;;;;;5074052;28;20025;-91
2022/06/24 11:15:47;;;;;;;31.42;7.82;;;28.70;99.90;;;;;;5065154;28;20032;-90
2022/06/24 11:18:17;;;;;;;33.78;7.10;;;29.00;99.90;;;;;;5032042;28;20131;-91
2022/06/24 11:20:52;;;;;;;31.80;7.75;;;29.20;99.90;;;;;;5063159;28;20448;-90
2022/06/24 11:23:19;;;;;;;40.05;7.70;;;29.20;99.90;;;;;;5070428;28;20045;-90
2022/06/24 11:25:47;;;;;;;28.08;6.57;;;29.10;99.90;;;;;;5063354;28;20025;-90
2022/06/24 11:28:20;;;;;;;34.03;7.63;;;29.20;99.90;;;;;;5052311;28;20145;-90
2022/06/24 11:30:46;;;;;;;32.50;7.90;;;29.30;99.90;;;;;;5055841;28;20490;-91
2022/06/24 11:33:12;;;;;;;27.83;8.00;;;29.40;99.90;;;;;;5060441;28;20037;-89
2022/06/24 11:35:38;;;;;;;32.75;7.45;;;29.20;99.90;;;;;;5038055;28;20017;-89
2022/06/24 11:38:08;;;;;;;42.60;7.18;;;29.10;99.90;;;;;;5052095;28;20094;-93
2022/06/24 11:40:36;;;;;;;35.95;8.10;;;29.20;99.90;;;;;;5054669;28;20525;-91
2022/06/24 11:43:11;;;;;;;30.73;7.05;;;29.40;99.90;;;;;;5032015;28;20392;-90
2022/06/24 11:45:48;;;;;;;21.98;7.00;;;29.30;99.90;;;;;;5055015;28;20025;-91
2022/06/24 11:48:22;;;;;;;35.10;7.38;;;29.30;99.90;;;;;;5051320;28;20090;-91
2022/06/24 11:50:49;;;;;;;49.55;7.63;;;29.60;99.90;;;;;;5055813;28;20075;-89
2022/06/24 11:53:16;;;;;;;33.75;6.95;;;29.60;99.90;;;;;;5068956;28;20171;-91
2022/06/24 11:55:42;;;;;;;24.48;6.68;;;30.00;99.90;;;;;;5055340;28;20031;-91
2022/06/24 11:58:12;;;;;;;30.73;6.60;;;30.20;99.90;;;;;;5049727;28;20112;-90
2022/06/24 12:00:40;;;;;;;29.80;6.90;;;29.80;99.90;;;;;;5055744;28;20040;-90
2022/06/24 12:03:08;;;;;;;24.50;7.15;;;29.50;99.90;;;;;;5049527;28;20522;-91
2022/06/24 12:05:41;;;;;;;38.45;6.90;;;30.40;99.90;;;;;;5036501;28;20033;-89
2022/06/24 12:08:07;;;;;;;33.53;6.88;;;32.60;99.90;;;;;;5048653;28;20028;-90
2022/06/24 12:10:35;;;;;;;27.58;6.75;;;34.10;99.90;;;;;;5036108;28;20075;-91
2022/06/24 12:13:02;;;;;;;34.83;6.72;;;33.80;99.90;;;;;;5072986;28;20032;-90
2022/06/24 12:15:47;;;;;;;27.42;6.72;;;34.20;99.90;;;;;;5066109;28;20024;-93
2022/06/24 12:18:14;;;;;;;26.35;6.43;;;35.00;99.90;;;;;;5059043;28;20032;-93
2022/06/24 12:20:40;;;;;;;28.42;6.68;;;35.60;99.90;;;;;;5052819;28;20638;-93
2022/06/24 12:23:12;;;;;;;29.02;7.18;;;35.60;99.90;;;;;;5052952;28;20070;-91
2022/06/24 12:25:39;;;;;;;29.08;6.38;;;34.90;99.90;;;;;;5066196;28;20094;-89
2022/06/24 12:28:20;;;;;;;26.40;6.57;;;34.60;99.90;;;;;;5034872;28;20056;-93
2022/06/24 12:31:09;;;;;;;27.17;6.38;;;34.80;99.90;;;;;;5040837;28;20048;-90
2022/06/24 12:34:09;;;;;;;27.23;6.03;;;34.70;99.90;;;;;;5053896;28;20021;-93
2022/06/24 12:36:41;;;;;;;28.70;5.72;;;34.70;99.90;;;;;;5045491;28;20028;-92
2022/06/24 12:39:09;;;;;;;21.25;5.32;;;35.20;99.90;;;;;;5050396;28;20028;-90
2022/06/24 12:41:42;;;;;;;25.75;5.93;;;35.10;99.90;;;;;;5057275;28;20025;-93
2022/06/24 12:44:08;;;;;;;26.67;5.65;;;35.80;99.90;;;;;;5037565;28;20493;-92
2022/06/24 12:46:33;;;;;;;25.48;4.95;;;36.30;99.90;;;;;;5037760;28;20025;-91
2022/06/24 12:51:48;;;;;;;28.88;6.55;;;37.10;99.90;;;;;;5061559;28;20121;-91
2022/06/24 12:54:15;;;;;;;23.23;6.20;;;38.50;99.90;;;;;;5056544;28;20017;-90
2022/06/24 12:56:41;;;;;;;23.30;6.05;;;37.90;99.90;;;;;;5043306;28;20486;-92
2022/06/24 12:59:08;;;;;;;26.58;5.90;;;38.00;99.90;;;;;;5054182;28;20060;-92
2022/06/24 13:01:43;;;;;;;19.98;4.40;;;37.70;99.90;;;;;;5044563;28;20035;-90
2022/06/24 13:04:10;;;;;;;22.40;5.18;;;38.00;99.90;;;;;;5048614;28;20021;-90
2022/06/24 13:06:36;;;;;;;20.67;4.85;;;37.70;98.70;;;;;;5055410;28;20112;-92
2022/06/24 13:09:04;;;;;;;32.60;5.72;;;37.60;97.70;;;;;;5037955;28;20028;-91
2022/06/24 13:11:30;;;;;;;18.42;5.03;;;37.90;97.80;;;;;;5039177;28;20033;-93